createdAt,value
2022-12-22T00:00:00.049Z,5.22
2022-12-22T00:02:45.251Z,6.10
2022-12-22T00:05:33.669Z,6.85
2022-12-22T00:08:18.627Z,5.97
2022-12-22T00:11:03.868Z,5.97
2022-12-22T00:13:48.801Z,5.38
2022-12-22T00:16:34.068Z,5.82
2022-12-22T00:19:18.978Z,5.50
2022-12-22T00:22:03.878Z,5.68
2022-12-22T00:24:49.041Z,5.80
2022-12-22T00:27:35.558Z,5.65
2022-12-22T00:30:21.400Z,5.93
2022-12-22T00:33:07.143Z,5.50
2022-12-22T00:35:52.244Z,6.05
2022-12-22T00:38:38.824Z,5.47
2022-12-22T00:41:24.279Z,5.60
2022-12-22T00:44:09.361Z,5.45
2022-12-22T00:46:56.738Z,5.50
2022-12-22T00:49:43.148Z,5.63
2022-12-22T00:52:28.872Z,5.80
2022-12-22T00:55:13.904Z,5.65
2022-12-22T00:58:00.346Z,5.60
2022-12-22T01:00:45.785Z,5.93
2022-12-22T01:03:31.257Z,5.68
2022-12-22T01:06:17.919Z,5.45
2022-12-22T01:09:02.841Z,5.68
2022-12-22T01:11:47.865Z,5.35
2022-12-22T01:14:34.469Z,5.97
2022-12-22T01:17:20.218Z,5.63
2022-12-22T01:20:05.171Z,5.57
2022-12-22T01:22:50.712Z,5.70
2022-12-22T01:25:37.219Z,5.53
2022-12-22T01:28:23.388Z,5.70
2022-12-22T01:31:08.858Z,5.05
2022-12-22T01:33:54.498Z,5.60
2022-12-22T01:36:39.853Z,5.88
2022-12-22T01:39:25.258Z,5.65
2022-12-22T01:42:10.171Z,5.03
2022-12-22T01:44:55.238Z,5.60
2022-12-22T01:47:46.417Z,5.57
2022-12-22T01:50:36.340Z,5.57
2022-12-22T01:53:24.241Z,5.40
2022-12-22T01:56:09.200Z,5.18
2022-12-22T01:58:57.339Z,5.10
2022-12-22T02:01:42.469Z,6.38
2022-12-22T02:04:28.050Z,5.65
2022-12-22T02:07:15.900Z,4.28
2022-12-22T02:10:13.558Z,6.40
2022-12-22T02:13:04.901Z,5.70
2022-12-22T02:15:54.863Z,5.72
2022-12-22T02:18:43.059Z,5.80
2022-12-22T02:21:34.439Z,5.32
2022-12-22T02:24:28.699Z,5.03
2022-12-22T02:27:15.461Z,5.75
2022-12-22T02:30:04.449Z,5.28
2022-12-22T02:32:52.185Z,5.57
2022-12-22T02:35:37.246Z,5.35
2022-12-22T02:38:25.224Z,6.03
2022-12-22T02:41:16.341Z,5.55
2022-12-22T02:44:19.829Z,5.13
2022-12-22T02:47:29.586Z,5.25
2022-12-22T02:50:33.692Z,5.28
2022-12-22T02:53:19.741Z,5.22
2022-12-22T02:56:05.163Z,5.70
2022-12-22T02:58:51.490Z,5.15
2022-12-22T03:01:37.010Z,5.50
2022-12-22T03:04:22.455Z,5.57
2022-12-22T03:07:07.379Z,5.45
2022-12-22T03:09:52.236Z,5.50
2022-12-22T03:12:37.159Z,6.43
2022-12-22T03:15:22.077Z,5.28
2022-12-22T03:18:07.292Z,5.65
2022-12-22T03:20:52.183Z,5.40
2022-12-22T03:23:37.384Z,5.45
2022-12-22T03:26:04.094Z,5.00
2022-12-22T03:28:30.710Z,6.05
2022-12-22T03:31:01.895Z,5.43
2022-12-22T03:33:29.246Z,5.35
2022-12-22T03:35:55.896Z,4.10
2022-12-22T03:38:22.831Z,6.40
2022-12-22T03:40:49.468Z,5.65
2022-12-22T03:43:35.507Z,5.82
2022-12-22T03:46:21.013Z,4.55
2022-12-22T03:49:07.682Z,5.57
2022-12-22T03:51:34.527Z,5.72
2022-12-22T03:54:01.173Z,6.28
2022-12-22T03:56:28.176Z,4.07
2022-12-22T03:58:54.835Z,5.57
2022-12-22T04:01:21.742Z,5.55
2022-12-22T04:03:48.751Z,6.00
2022-12-22T04:06:15.746Z,5.88
2022-12-22T04:08:42.483Z,6.07
2022-12-22T04:11:31.261Z,6.40
2022-12-22T04:13:57.956Z,6.10
2022-12-22T04:16:24.628Z,5.78
2022-12-22T04:18:51.334Z,5.82
2022-12-22T04:21:17.973Z,5.88
2022-12-22T04:23:44.667Z,5.50
2022-12-22T04:26:11.373Z,6.10
2022-12-22T04:28:38.115Z,5.53
2022-12-22T04:31:04.907Z,6.10
2022-12-22T04:33:31.548Z,5.78
2022-12-22T04:35:58.150Z,5.93
2022-12-22T04:38:24.712Z,5.75
2022-12-22T04:40:51.308Z,6.13
2022-12-22T04:43:17.888Z,5.95
2022-12-22T04:45:45.096Z,6.22
2022-12-22T04:48:11.833Z,5.70
2022-12-22T04:50:39.012Z,5.72
2022-12-22T04:53:05.643Z,6.60
2022-12-22T04:55:32.279Z,5.43
2022-12-22T04:57:58.907Z,5.95
2022-12-22T05:00:25.592Z,5.75
2022-12-22T05:02:52.872Z,6.28
2022-12-22T05:05:19.561Z,6.20
2022-12-22T05:07:46.173Z,5.80
2022-12-22T05:10:12.791Z,5.78
2022-12-22T05:12:54.552Z,5.70
2022-12-22T05:15:24.983Z,6.10
2022-12-22T05:17:51.659Z,5.45
2022-12-22T05:20:18.692Z,5.55
2022-12-22T05:22:45.273Z,5.85
2022-12-22T05:25:13.333Z,5.43
2022-12-22T05:27:40.086Z,6.32
2022-12-22T05:30:06.993Z,6.07
2022-12-22T05:32:34.167Z,6.20
2022-12-22T05:35:00.743Z,5.55
2022-12-22T05:37:27.609Z,6.00
2022-12-22T05:39:54.263Z,6.05
2022-12-22T05:42:36.256Z,5.82
2022-12-22T05:45:02.888Z,5.82
2022-12-22T05:47:29.413Z,7.00
2022-12-22T05:49:56.080Z,5.95
2022-12-22T05:52:22.650Z,5.80
2022-12-22T05:54:49.431Z,6.78
2022-12-22T05:57:16.537Z,5.75
2022-12-22T05:59:43.191Z,6.75
2022-12-22T06:02:10.140Z,6.60
2022-12-22T06:04:36.819Z,6.65
2022-12-22T06:07:03.375Z,6.55
2022-12-22T06:09:30.006Z,6.25
2022-12-22T06:11:56.644Z,5.68
2022-12-22T06:14:23.264Z,6.28
2022-12-22T06:16:49.874Z,6.55
2022-12-22T06:19:16.585Z,6.18
2022-12-22T06:21:43.211Z,6.32
2022-12-22T06:24:09.806Z,5.93
2022-12-22T06:26:36.552Z,6.40
2022-12-22T06:29:03.098Z,6.65
2022-12-22T06:31:29.704Z,6.82
2022-12-22T06:33:56.309Z,6.43
2022-12-22T06:36:23.300Z,6.07
2022-12-22T06:38:50.044Z,6.13
2022-12-22T06:41:36.572Z,6.55
2022-12-22T06:44:03.206Z,6.20
2022-12-22T06:46:29.862Z,6.32
2022-12-22T06:48:56.582Z,6.60
2022-12-22T06:51:23.178Z,6.40
2022-12-22T06:53:49.752Z,6.35
2022-12-22T06:56:16.381Z,6.32
2022-12-22T06:58:43.019Z,6.25
2022-12-22T07:01:09.663Z,6.03
2022-12-22T07:03:37.375Z,6.53
2022-12-22T07:06:04.095Z,6.95
2022-12-22T07:08:30.681Z,6.50
2022-12-22T07:11:00.296Z,6.95
2022-12-22T07:13:28.973Z,6.50
2022-12-22T07:16:00.451Z,6.65
2022-12-22T07:18:32.585Z,6.18
2022-12-22T07:20:59.878Z,7.40
2022-12-22T07:23:26.754Z,6.88
2022-12-22T07:25:53.356Z,7.10
2022-12-22T07:28:21.303Z,6.28
2022-12-22T07:30:49.132Z,6.70
2022-12-22T07:33:15.919Z,6.65
2022-12-22T07:35:42.517Z,7.03
2022-12-22T07:38:09.192Z,7.10
2022-12-22T07:40:41.520Z,6.18
2022-12-22T07:43:08.730Z,6.82
2022-12-22T07:45:35.401Z,6.65
2022-12-22T07:48:02.585Z,6.88
2022-12-22T07:50:29.257Z,7.45
2022-12-22T07:52:56.716Z,6.50
2022-12-22T07:55:24.122Z,6.88
2022-12-22T07:57:53.439Z,6.28
2022-12-22T08:00:20.278Z,6.65
2022-12-22T08:02:54.328Z,7.35
2022-12-22T08:05:21.593Z,6.72
2022-12-22T08:07:48.762Z,6.53
2022-12-22T08:10:15.939Z,6.45
2022-12-22T08:12:45.446Z,7.35
2022-12-22T08:15:12.367Z,6.78
2022-12-22T08:17:39.203Z,6.75
2022-12-22T08:20:06.347Z,7.63
2022-12-22T08:22:32.938Z,6.78
2022-12-22T08:24:59.517Z,6.70
2022-12-22T08:27:31.959Z,6.85
2022-12-22T08:30:00.926Z,7.00
2022-12-22T08:32:27.797Z,6.40
2022-12-22T08:34:54.536Z,6.97
2022-12-22T08:37:22.798Z,6.97
2022-12-22T08:39:52.351Z,7.03
2022-12-22T08:42:20.345Z,5.82
2022-12-22T08:44:52.197Z,7.40
2022-12-22T08:47:20.678Z,7.45
2022-12-22T08:49:47.638Z,7.05
2022-12-22T08:52:18.463Z,7.85
2022-12-22T08:54:45.830Z,6.88
2022-12-22T08:57:12.432Z,7.55
2022-12-22T08:59:39.034Z,7.10
2022-12-22T09:02:06.281Z,7.28
2022-12-22T09:04:33.881Z,7.70
2022-12-22T09:07:02.596Z,6.85
2022-12-22T09:09:31.819Z,7.05
2022-12-22T09:11:58.399Z,7.43
2022-12-22T09:14:25.017Z,7.45
2022-12-22T09:16:51.844Z,7.30
2022-12-22T09:19:18.596Z,7.22
2022-12-22T09:21:45.361Z,7.05
2022-12-22T09:24:15.765Z,6.85
2022-12-22T09:26:43.138Z,6.68
2022-12-22T09:29:09.746Z,7.38
2022-12-22T09:31:36.444Z,7.40
2022-12-22T09:34:03.142Z,7.53
2022-12-22T09:36:30.669Z,7.18
2022-12-22T09:38:57.262Z,7.15
2022-12-22T09:41:26.736Z,6.90
2022-12-22T09:43:53.475Z,6.53
2022-12-22T09:46:27.218Z,6.88
2022-12-22T09:48:54.222Z,6.95
2022-12-22T09:51:26.834Z,7.30
2022-12-22T09:53:55.726Z,7.65
2022-12-22T09:56:23.364Z,7.40
2022-12-22T09:58:50.072Z,7.72
2022-12-22T10:01:19.483Z,6.78
2022-12-22T10:03:49.177Z,8.20
2022-12-22T10:06:21.293Z,7.82
2022-12-22T10:08:47.861Z,7.25
2022-12-22T10:11:18.182Z,8.20
2022-12-22T10:13:45.170Z,7.03
2022-12-22T10:16:22.572Z,7.45
2022-12-22T10:19:07.326Z,7.45
2022-12-22T10:21:41.163Z,8.05
2022-12-22T10:24:25.821Z,7.43
2022-12-22T10:26:56.742Z,7.70
2022-12-22T10:29:23.446Z,7.38
2022-12-22T10:32:00.974Z,7.88
2022-12-22T10:34:27.882Z,7.43
2022-12-22T10:37:02.781Z,7.50
2022-12-22T10:39:31.674Z,7.22
2022-12-22T10:42:06.904Z,7.70
2022-12-22T10:44:34.954Z,7.07
2022-12-22T10:47:15.597Z,7.18
2022-12-22T10:52:23.807Z,7.13
2022-12-22T10:55:13.941Z,7.55
2022-12-22T10:57:40.580Z,7.63
2022-12-22T11:00:23.098Z,7.47
2022-12-22T11:02:53.879Z,7.43
2022-12-22T11:05:20.821Z,7.55
2022-12-22T11:07:47.499Z,7.25
2022-12-22T11:10:19.731Z,6.60
2022-12-22T11:12:49.320Z,6.95
2022-12-22T11:15:24.608Z,7.10
2022-12-22T11:17:57.631Z,7.55
2022-12-22T11:20:39.259Z,6.97
2022-12-22T11:23:14.031Z,7.28
2022-12-22T11:25:49.962Z,7.07
2022-12-22T11:28:26.194Z,6.63
2022-12-22T11:31:08.328Z,7.10
2022-12-22T11:33:53.367Z,6.50
2022-12-22T11:36:20.310Z,6.97
2022-12-22T11:39:00.729Z,7.95
2022-12-22T11:41:39.485Z,7.90
2022-12-22T11:44:24.907Z,7.47
2022-12-22T11:47:08.606Z,7.43
2022-12-22T11:49:38.126Z,7.18
2022-12-22T11:52:04.645Z,6.57
2022-12-22T11:54:59.028Z,7.07
2022-12-22T11:57:44.184Z,8.40
2022-12-22T12:00:11.068Z,9.77
2022-12-22T12:03:04.892Z,8.25
2022-12-22T12:05:49.892Z,9.10
2022-12-22T12:08:25.745Z,8.63
2022-12-22T12:10:54.947Z,8.75
2022-12-22T12:13:37.499Z,9.32
2022-12-22T12:16:18.678Z,9.73
2022-12-22T12:19:04.042Z,8.80
2022-12-22T12:21:30.717Z,8.68
2022-12-22T12:24:03.742Z,8.07
2022-12-22T12:26:44.435Z,7.75
2022-12-22T12:29:22.002Z,8.40
2022-12-22T12:32:05.376Z,8.35
2022-12-22T12:34:34.153Z,7.50
2022-12-22T12:37:08.931Z,7.53
2022-12-22T12:39:38.510Z,8.07
2022-12-22T12:42:14.384Z,7.75
2022-12-22T12:44:41.013Z,8.40
2022-12-22T12:47:43.175Z,8.73
2022-12-22T12:50:28.440Z,6.35
2022-12-22T12:52:54.976Z,7.00
2022-12-22T12:55:32.536Z,7.43
2022-12-22T12:58:01.082Z,7.68
2022-12-22T13:00:34.056Z,6.78
2022-12-22T13:03:00.869Z,7.60
2022-12-22T13:05:30.360Z,7.43
2022-12-22T13:08:12.071Z,7.97
2022-12-22T13:10:40.082Z,7.53
2022-12-22T13:13:09.995Z,7.43
2022-12-22T13:15:38.315Z,6.63
2022-12-22T13:18:31.414Z,7.45
2022-12-22T13:21:26.055Z,7.82
2022-12-22T13:24:23.632Z,7.22
2022-12-22T13:26:43.383Z,6.95
2022-12-22T13:29:10.109Z,7.00
2022-12-22T13:31:41.799Z,7.40
2022-12-22T13:34:27.087Z,7.05
2022-12-22T13:36:54.507Z,6.57
2022-12-22T13:39:21.516Z,7.32
2022-12-22T13:41:50.043Z,7.28
2022-12-22T13:44:19.507Z,7.05
2022-12-22T13:46:46.471Z,6.78
2022-12-22T13:49:43.338Z,6.55
2022-12-22T13:52:05.779Z,6.68
2022-12-22T13:54:33.775Z,6.70
2022-12-22T13:57:01.345Z,7.22
2022-12-22T13:59:29.288Z,7.43
2022-12-22T14:01:59.344Z,7.53
2022-12-22T14:04:26.337Z,6.47
2022-12-22T14:06:54.809Z,5.00
2022-12-22T14:09:27.865Z,7.00
2022-12-22T14:12:00.837Z,6.50
2022-12-22T14:14:28.835Z,6.70
2022-12-22T14:17:00.709Z,6.80
2022-12-22T14:19:37.371Z,6.60
2022-12-22T14:22:18.498Z,6.57
2022-12-22T14:24:48.176Z,6.60
2022-12-22T14:27:28.891Z,7.05
2022-12-22T14:29:55.840Z,7.00
2022-12-22T14:32:34.647Z,6.82
2022-12-22T14:35:01.226Z,6.80
2022-12-22T14:37:32.540Z,6.57
2022-12-22T14:39:59.568Z,7.70
2022-12-22T14:42:26.287Z,6.88
2022-12-22T14:44:52.920Z,7.18
2022-12-22T14:47:23.400Z,7.50
2022-12-22T14:49:49.969Z,6.88
2022-12-22T14:52:19.456Z,7.57
2022-12-22T14:54:47.081Z,6.95
2022-12-22T14:57:20.213Z,7.20
2022-12-22T15:00:00.816Z,6.88
2022-12-22T15:02:34.938Z,6.88
2022-12-22T15:05:09.472Z,6.78
2022-12-22T15:10:43.374Z,6.55
2022-12-22T15:13:17.263Z,7.53
2022-12-22T15:15:44.232Z,7.05
2022-12-22T15:18:14.110Z,6.88
2022-12-22T15:20:40.665Z,6.65
2022-12-22T15:23:15.409Z,7.07
2022-12-22T15:25:41.919Z,6.95
2022-12-22T15:28:08.928Z,6.78
2022-12-22T15:30:36.048Z,6.95
2022-12-22T15:33:02.725Z,7.07
2022-12-22T15:35:31.098Z,7.00
2022-12-22T15:37:58.019Z,7.47
2022-12-22T15:40:24.942Z,7.25
2022-12-22T15:42:51.628Z,7.28
2022-12-22T15:45:19.015Z,7.47
2022-12-22T15:47:48.358Z,6.65
2022-12-22T15:50:19.863Z,7.50
2022-12-22T15:52:49.048Z,7.82
2022-12-22T15:55:16.018Z,9.10
2022-12-22T15:57:43.799Z,10.27
2022-12-22T16:00:11.648Z,10.57
2022-12-22T16:02:38.377Z,8.07
2022-12-22T16:05:05.137Z,10.43
2022-12-22T16:07:31.781Z,10.10
2022-12-22T16:09:59.025Z,12.07
2022-12-22T16:12:25.903Z,10.10
2022-12-22T16:14:54.467Z,9.60
2022-12-22T16:17:22.625Z,10.27
2022-12-22T16:19:49.155Z,8.38
2022-12-22T16:22:17.298Z,6.53
2022-12-22T16:24:45.519Z,8.05
2022-12-22T16:27:12.783Z,8.02
2022-12-22T16:29:39.810Z,7.70
2022-12-22T16:32:24.423Z,7.43
2022-12-22T16:34:51.147Z,7.95
2022-12-22T16:37:17.845Z,7.68
2022-12-22T16:39:44.707Z,7.60
2022-12-22T16:45:02.374Z,7.13
2022-12-22T16:47:31.676Z,7.85
2022-12-22T16:49:59.784Z,8.23
2022-12-22T16:52:29.926Z,8.25
2022-12-22T16:54:56.557Z,8.05
2022-12-22T16:57:23.377Z,7.35
2022-12-22T16:59:49.880Z,8.30
2022-12-22T17:02:30.784Z,8.43
2022-12-22T17:05:00.329Z,8.20
2022-12-22T17:07:27.719Z,8.50
2022-12-22T17:09:56.762Z,8.52
2022-12-22T17:12:25.479Z,8.70
2022-12-22T17:14:52.345Z,8.30
2022-12-22T17:17:30.944Z,8.93
2022-12-22T17:19:59.756Z,8.18
2022-12-22T17:22:30.284Z,7.93
2022-12-22T17:24:57.778Z,8.43
2022-12-22T17:27:26.485Z,8.18
2022-12-22T17:29:53.367Z,8.13
2022-12-22T17:32:20.887Z,8.10
2022-12-22T17:34:47.567Z,7.90
2022-12-22T17:37:15.367Z,8.25
2022-12-22T17:39:42.529Z,8.93
2022-12-22T17:42:16.615Z,8.27
2022-12-22T17:44:43.250Z,8.95
2022-12-22T17:47:13.961Z,8.70
2022-12-22T17:49:41.357Z,8.02
2022-12-22T17:52:20.956Z,7.53
2022-12-22T17:54:48.198Z,7.45
2022-12-22T17:57:44.045Z,7.63
2022-12-22T18:00:18.330Z,7.68
2022-12-22T18:02:45.459Z,7.53
2022-12-22T18:05:15.801Z,5.90
2022-12-22T18:07:43.502Z,7.45
2022-12-22T18:10:24.296Z,7.88
2022-12-22T18:12:54.066Z,7.75
2022-12-22T18:15:21.586Z,8.43
2022-12-22T18:17:48.245Z,7.53
2022-12-22T18:20:19.051Z,7.90
2022-12-22T18:22:45.576Z,7.22
2022-12-22T18:25:21.896Z,7.65
2022-12-22T18:27:48.785Z,7.68
2022-12-22T18:30:16.795Z,8.18
2022-12-22T18:32:43.304Z,7.90
2022-12-22T18:35:09.868Z,7.85
2022-12-22T18:37:37.238Z,7.40
2022-12-22T18:40:04.107Z,8.18
2022-12-22T18:42:30.686Z,7.97
2022-12-22T18:44:57.277Z,7.70
2022-12-22T18:47:23.874Z,7.50
2022-12-22T18:49:50.920Z,7.93
2022-12-22T18:52:23.256Z,7.60
2022-12-22T18:54:49.875Z,8.13
2022-12-22T18:57:18.002Z,7.35
2022-12-22T18:59:44.776Z,7.13
2022-12-22T19:02:26.297Z,7.28
2022-12-22T19:04:53.584Z,6.22
2022-12-22T19:07:23.878Z,6.68
2022-12-22T19:09:50.533Z,6.38
2022-12-22T19:12:18.454Z,6.95
2022-12-22T19:14:46.081Z,6.80
2022-12-22T19:17:14.125Z,6.32
2022-12-22T19:19:40.659Z,6.18
2022-12-22T19:22:08.580Z,6.32
2022-12-22T19:24:35.147Z,6.07
2022-12-22T19:27:01.792Z,6.30
2022-12-22T19:29:28.345Z,6.00
2022-12-22T19:31:54.980Z,6.05
2022-12-22T19:34:21.724Z,5.30
2022-12-22T19:36:48.286Z,5.32
2022-12-22T19:39:14.742Z,5.70
2022-12-22T19:41:50.136Z,5.20
2022-12-22T19:44:22.134Z,5.25
2022-12-22T19:46:49.117Z,5.03
2022-12-22T19:49:17.719Z,5.10
2022-12-22T19:51:44.502Z,5.03
2022-12-22T19:54:11.081Z,4.65
2022-12-22T19:56:37.614Z,4.70
2022-12-22T19:59:05.925Z,4.75
2022-12-22T20:01:32.913Z,4.57
2022-12-22T20:03:59.484Z,3.97
2022-12-22T20:06:26.008Z,4.22
2022-12-22T20:08:52.505Z,4.57
2022-12-22T20:11:19.495Z,4.25
2022-12-22T20:13:46.727Z,4.10
2022-12-22T20:16:14.263Z,4.03
2022-12-22T20:18:41.335Z,3.53
2022-12-22T20:21:13.135Z,3.60
2022-12-22T20:23:40.023Z,4.30
2022-12-22T20:26:08.387Z,4.47
2022-12-22T20:28:37.435Z,3.63
2022-12-22T20:31:04.988Z,3.90
2022-12-22T20:33:31.969Z,3.60
2022-12-22T20:36:00.097Z,3.30
2022-12-22T20:38:34.339Z,3.20
2022-12-22T20:41:01.328Z,3.08
2022-12-22T20:43:28.956Z,3.20
2022-12-22T20:45:57.576Z,3.50
2022-12-22T20:48:29.351Z,3.28
2022-12-22T20:50:55.946Z,3.17
2022-12-22T20:53:22.536Z,2.95
2022-12-22T20:55:49.062Z,3.03
2022-12-22T20:58:21.646Z,3.20
2022-12-22T21:00:49.408Z,2.70
2022-12-22T21:03:16.055Z,3.05
2022-12-22T21:05:42.803Z,2.83
2022-12-22T21:08:20.162Z,3.20
2022-12-22T21:10:47.925Z,2.70
2022-12-22T21:13:15.119Z,2.47
2022-12-22T21:15:42.831Z,3.10
2022-12-22T21:18:14.732Z,3.03
2022-12-22T21:20:41.488Z,2.70
2022-12-22T21:23:08.023Z,2.38
2022-12-22T21:25:34.855Z,2.60
2022-12-22T21:28:02.631Z,2.58
2022-12-22T21:30:29.498Z,3.38
2022-12-22T21:32:56.543Z,2.53
2022-12-22T21:35:25.363Z,2.70
2022-12-22T21:37:52.759Z,2.53
2022-12-22T21:40:27.147Z,2.35
2022-12-22T21:42:54.355Z,2.17
2022-12-22T21:45:22.354Z,2.45
2022-12-22T21:47:48.989Z,2.72
2022-12-22T21:50:18.633Z,2.72
2022-12-22T21:52:50.297Z,2.70
2022-12-22T21:55:20.838Z,2.40
2022-12-22T21:57:47.535Z,2.47
2022-12-22T22:00:15.193Z,2.17
2022-12-22T22:02:42.221Z,2.55
2022-12-22T22:05:18.414Z,2.10
2022-12-22T22:07:44.915Z,2.30
2022-12-22T22:10:11.434Z,2.30
2022-12-22T22:12:38.122Z,2.55
2022-12-22T22:15:05.123Z,2.40
2022-12-22T22:17:31.785Z,2.45
2022-12-22T22:19:58.216Z,2.47
2022-12-22T22:22:24.798Z,2.53
2022-12-22T22:24:51.325Z,2.45
2022-12-22T22:27:17.808Z,2.20
2022-12-22T22:29:44.265Z,2.28
2022-12-22T22:32:10.679Z,2.45
2022-12-22T22:34:37.157Z,2.05
2022-12-22T22:37:03.578Z,2.10
2022-12-22T22:39:30.081Z,1.80
2022-12-22T22:41:56.614Z,2.00
2022-12-22T22:44:23.143Z,2.30
2022-12-22T22:46:49.759Z,1.95
2022-12-22T22:49:16.300Z,1.92
2022-12-22T22:51:42.771Z,1.73
2022-12-22T22:54:09.973Z,2.22
2022-12-22T22:56:38.763Z,1.88
2022-12-22T22:59:05.328Z,1.83
2022-12-22T23:01:31.882Z,2.15
2022-12-22T23:03:58.541Z,2.08
2022-12-22T23:06:25.094Z,2.00
2022-12-22T23:08:51.745Z,1.55
2022-12-22T23:11:18.268Z,2.03
2022-12-22T23:13:45.476Z,2.00
2022-12-22T23:16:12.073Z,1.75
2022-12-22T23:18:38.882Z,1.95
2022-12-22T23:21:06.813Z,1.80
2022-12-22T23:23:34.678Z,1.75
2022-12-22T23:26:01.314Z,2.00
2022-12-22T23:28:27.758Z,1.90
2022-12-22T23:30:54.270Z,1.70
2022-12-22T23:33:20.816Z,1.95
2022-12-22T23:35:48.502Z,1.85
2022-12-22T23:38:15.585Z,1.35
2022-12-22T23:40:52.392Z,1.55
2022-12-22T23:43:20.483Z,1.40
2022-12-22T23:45:46.968Z,1.90
2022-12-22T23:48:13.449Z,1.90
2022-12-22T23:50:39.976Z,2.00
2022-12-22T23:53:06.430Z,1.80
2022-12-22T23:55:32.836Z,1.70
2022-12-22T23:57:59.372Z,1.42
